sensor_id;sensor_type;location;lat;lon;timestamp;temperature;humidity
23116;DHT22;11727;52.134;5.052;2023-03-02T00:01:40;1.40;99.90
23116;DHT22;11727;52.134;5.052;2023-03-02T00:04:11;1.40;99.90
23116;DHT22;11727;52.134;5.052;2023-03-02T00:06:39;1.40;99.90
23116;DHT22;11727;52.134;5.052;2023-03-02T00:09:05;1.40;99.90
23116;DHT22;11727;52.134;5.052;2023-03-02T00:11:32;1.40;99.90
23116;DHT22;11727;52.134;5.052;2023-03-02T00:13:58;1.40;99.90
23116;DHT22;11727;52.134;5.052;2023-03-02T00:16:24;1.40;99.90
23116;DHT22;11727;52.134;5.052;2023-03-02T00:18:49;1.40;99.90
23116;DHT22;11727;52.134;5.052;2023-03-02T00:21:15;1.40;99.90
23116;DHT22;11727;52.134;5.052;2023-03-02T00:23:41;1.40;99.90
23116;DHT22;11727;52.134;5.052;2023-03-02T00:26:06;1.50;99.90
23116;DHT22;11727;52.134;5.052;2023-03-02T00:28:33;1.50;99.90
23116;DHT22;11727;52.134;5.052;2023-03-02T00:30:59;1.50;99.90
23116;DHT22;11727;52.134;5.052;2023-03-02T00:33:25;1.60;99.90
23116;DHT22;11727;52.134;5.052;2023-03-02T00:35:50;1.60;99.90
23116;DHT22;11727;52.134;5.052;2023-03-02T00:38:16;1.60;99.90
23116;DHT22;11727;52.134;5.052;2023-03-02T00:40:46;1.60;99.90
23116;DHT22;11727;52.134;5.052;2023-03-02T00:43:12;1.70;99.90
23116;DHT22;11727;52.134;5.052;2023-03-02T00:45:37;1.70;99.90
23116;DHT22;11727;52.134;5.052;2023-03-02T00:48:03;1.70;99.90
23116;DHT22;11727;52.134;5.052;2023-03-02T00:50:29;1.70;99.90
23116;DHT22;11727;52.134;5.052;2023-03-02T00:52:54;1.70;99.90
23116;DHT22;11727;52.134;5.052;2023-03-02T00:55:20;1.70;99.90
23116;DHT22;11727;52.134;5.052;2023-03-02T00:57:45;1.70;99.90
23116;DHT22;11727;52.134;5.052;2023-03-02T01:00:20;1.70;99.90
23116;DHT22;11727;52.134;5.052;2023-03-02T01:02:46;1.70;99.90
23116;DHT22;11727;52.134;5.052;2023-03-02T01:05:12;1.70;99.90
23116;DHT22;11727;52.134;5.052;2023-03-02T01:07:38;1.60;99.90
23116;DHT22;11727;52.134;5.052;2023-03-02T01:10:04;1.60;99.90
23116;DHT22;11727;52.134;5.052;2023-03-02T01:12:30;1.60;99.90
23116;DHT22;11727;52.134;5.052;2023-03-02T01:14:57;1.60;99.90
23116;DHT22;11727;52.134;5.052;2023-03-02T01:17:22;1.60;99.90
23116;DHT22;11727;52.134;5.052;2023-03-02T01:19:50;1.50;99.90
23116;DHT22;11727;52.134;5.052;2023-03-02T01:22:16;1.50;99.90
23116;DHT22;11727;52.134;5.052;2023-03-02T01:24:42;1.50;99.90
23116;DHT22;11727;52.134;5.052;2023-03-02T01:27:08;1.50;99.90
23116;DHT22;11727;52.134;5.052;2023-03-02T01:29:34;1.50;99.90
23116;DHT22;11727;52.134;5.052;2023-03-02T01:32:00;1.50;99.90
23116;DHT22;11727;52.134;5.052;2023-03-02T01:34:25;1.50;99.90
23116;DHT22;11727;52.134;5.052;2023-03-02T01:36:51;1.50;99.90
23116;DHT22;11727;52.134;5.052;2023-03-02T01:39:17;1.40;99.90
23116;DHT22;11727;52.134;5.052;2023-03-02T01:41:44;1.40;99.90
23116;DHT22;11727;52.134;5.052;2023-03-02T01:44:42;1.40;99.90
23116;DHT22;11727;52.134;5.052;2023-03-02T01:50:02;1.40;99.90
23116;DHT22;11727;52.134;5.052;2023-03-02T01:52:31;1.40;99.90
23116;DHT22;11727;52.134;5.052;2023-03-02T01:55:00;1.40;99.90
23116;DHT22;11727;52.134;5.052;2023-03-02T01:57:31;1.40;99.90
23116;DHT22;11727;52.134;5.052;2023-03-02T02:00:03;1.40;99.90
23116;DHT22;11727;52.134;5.052;2023-03-02T02:02:33;1.40;99.90
23116;DHT22;11727;52.134;5.052;2023-03-02T02:05:00;1.40;99.90
23116;DHT22;11727;52.134;5.052;2023-03-02T02:07:25;1.40;99.90
23116;DHT22;11727;52.134;5.052;2023-03-02T02:09:52;1.50;99.90
23116;DHT22;11727;52.134;5.052;2023-03-02T02:12:21;1.50;99.90
23116;DHT22;11727;52.134;5.052;2023-03-02T02:14:47;1.50;99.90
23116;DHT22;11727;52.134;5.052;2023-03-02T02:17:15;1.50;99.90
23116;DHT22;11727;52.134;5.052;2023-03-02T02:19:57;1.40;99.90
23116;DHT22;11727;52.134;5.052;2023-03-02T02:25:05;1.40;99.90
23116;DHT22;11727;52.134;5.052;2023-03-02T02:27:35;1.40;99.90
23116;DHT22;11727;52.134;5.052;2023-03-02T02:30:03;1.40;99.90
23116;DHT22;11727;52.134;5.052;2023-03-02T02:32:32;1.40;99.90
23116;DHT22;11727;52.134;5.052;2023-03-02T02:35:13;1.40;99.90
23116;DHT22;11727;52.134;5.052;2023-03-02T02:37:44;1.30;99.90
23116;DHT22;11727;52.134;5.052;2023-03-02T02:40:19;1.30;99.90
23116;DHT22;11727;52.134;5.052;2023-03-02T02:42:47;1.30;99.90
23116;DHT22;11727;52.134;5.052;2023-03-02T02:45:21;1.20;99.90
23116;DHT22;11727;52.134;5.052;2023-03-02T02:47:48;1.20;99.90
23116;DHT22;11727;52.134;5.052;2023-03-02T02:50:25;1.20;99.90
23116;DHT22;11727;52.134;5.052;2023-03-02T02:52:58;1.20;99.90
23116;DHT22;11727;52.134;5.052;2023-03-02T02:55:25;1.20;99.90
23116;DHT22;11727;52.134;5.052;2023-03-02T02:57:54;1.10;99.90
23116;DHT22;11727;52.134;5.052;2023-03-02T03:00:21;1.10;99.90
23116;DHT22;11727;52.134;5.052;2023-03-02T03:02:59;1.10;99.90
23116;DHT22;11727;52.134;5.052;2023-03-02T03:05:26;1.10;99.90
23116;DHT22;11727;52.134;5.052;2023-03-02T03:07:51;1.10;99.90
23116;DHT22;11727;52.134;5.052;2023-03-02T03:10:30;1.00;99.90
23116;DHT22;11727;52.134;5.052;2023-03-02T03:12:59;1.00;99.90
23116;DHT22;11727;52.134;5.052;2023-03-02T03:15:25;0.90;99.90
23116;DHT22;11727;52.134;5.052;2023-03-02T03:17:55;1.00;99.90
23116;DHT22;11727;52.134;5.052;2023-03-02T03:20:22;0.90;99.90
23116;DHT22;11727;52.134;5.052;2023-03-02T03:22:48;0.90;99.90
23116;DHT22;11727;52.134;5.052;2023-03-02T03:25:13;0.80;99.90
23116;DHT22;11727;52.134;5.052;2023-03-02T03:27:41;0.80;99.90
23116;DHT22;11727;52.134;5.052;2023-03-02T03:30:07;0.80;99.90
23116;DHT22;11727;52.134;5.052;2023-03-02T03:32:34;0.80;99.90
23116;DHT22;11727;52.134;5.052;2023-03-02T03:34:59;0.80;99.90
23116;DHT22;11727;52.134;5.052;2023-03-02T03:37:25;0.80;99.90
23116;DHT22;11727;52.134;5.052;2023-03-02T03:39:51;0.80;99.90
23116;DHT22;11727;52.134;5.052;2023-03-02T03:42:17;0.80;99.90
23116;DHT22;11727;52.134;5.052;2023-03-02T03:44:42;0.80;99.90
23116;DHT22;11727;52.134;5.052;2023-03-02T03:47:08;0.80;99.90
23116;DHT22;11727;52.134;5.052;2023-03-02T03:49:34;0.80;99.90
23116;DHT22;11727;52.134;5.052;2023-03-02T03:51:59;0.80;99.90
23116;DHT22;11727;52.134;5.052;2023-03-02T03:54:25;0.70;99.90
23116;DHT22;11727;52.134;5.052;2023-03-02T03:56:51;0.70;99.90
23116;DHT22;11727;52.134;5.052;2023-03-02T03:59:22;0.70;99.90
23116;DHT22;11727;52.134;5.052;2023-03-02T04:01:53;0.70;99.90
23116;DHT22;11727;52.134;5.052;2023-03-02T04:04:25;0.70;99.90
23116;DHT22;11727;52.134;5.052;2023-03-02T04:06:52;0.70;99.90
23116;DHT22;11727;52.134;5.052;2023-03-02T04:09:17;0.70;99.90
23116;DHT22;11727;52.134;5.052;2023-03-02T04:11:45;0.60;99.90
23116;DHT22;11727;52.134;5.052;2023-03-02T04:14:10;0.60;99.90
23116;DHT22;11727;52.134;5.052;2023-03-02T04:16:37;0.60;99.90
23116;DHT22;11727;52.134;5.052;2023-03-02T04:19:04;0.60;99.90
23116;DHT22;11727;52.134;5.052;2023-03-02T04:21:38;0.50;99.90
23116;DHT22;11727;52.134;5.052;2023-03-02T04:24:05;0.50;99.90
23116;DHT22;11727;52.134;5.052;2023-03-02T04:26:31;0.50;99.90
23116;DHT22;11727;52.134;5.052;2023-03-02T04:28:57;0.60;99.90
23116;DHT22;11727;52.134;5.052;2023-03-02T04:31:23;0.60;99.90
23116;DHT22;11727;52.134;5.052;2023-03-02T04:33:48;0.50;99.90
23116;DHT22;11727;52.134;5.052;2023-03-02T04:36:14;0.50;99.90
23116;DHT22;11727;52.134;5.052;2023-03-02T04:38:39;0.50;99.90
23116;DHT22;11727;52.134;5.052;2023-03-02T04:41:05;0.40;99.90
23116;DHT22;11727;52.134;5.052;2023-03-02T04:43:31;0.40;99.90
23116;DHT22;11727;52.134;5.052;2023-03-02T04:45:56;0.40;99.90
23116;DHT22;11727;52.134;5.052;2023-03-02T04:48:22;0.40;99.90
23116;DHT22;11727;52.134;5.052;2023-03-02T04:50:48;0.30;99.90
23116;DHT22;11727;52.134;5.052;2023-03-02T04:53:14;0.40;99.90
23116;DHT22;11727;52.134;5.052;2023-03-02T04:55:40;0.40;99.90
23116;DHT22;11727;52.134;5.052;2023-03-02T04:58:06;0.40;99.90
23116;DHT22;11727;52.134;5.052;2023-03-02T05:00:32;0.30;99.90
23116;DHT22;11727;52.134;5.052;2023-03-02T05:03:00;0.40;99.90
23116;DHT22;11727;52.134;5.052;2023-03-02T05:05:27;0.40;99.90
23116;DHT22;11727;52.134;5.052;2023-03-02T05:07:53;0.40;99.90
23116;DHT22;11727;52.134;5.052;2023-03-02T05:10:20;0.40;99.90
23116;DHT22;11727;52.134;5.052;2023-03-02T05:12:46;0.40;99.90
23116;DHT22;11727;52.134;5.052;2023-03-02T05:15:36;0.40;99.90
23116;DHT22;11727;52.134;5.052;2023-03-02T05:18:04;0.50;99.90
23116;DHT22;11727;52.134;5.052;2023-03-02T05:20:30;0.40;99.90
23116;DHT22;11727;52.134;5.052;2023-03-02T05:22:59;0.40;99.90
23116;DHT22;11727;52.134;5.052;2023-03-02T05:25:26;0.40;99.90
23116;DHT22;11727;52.134;5.052;2023-03-02T05:27:52;0.40;99.90
23116;DHT22;11727;52.134;5.052;2023-03-02T05:30:18;0.40;99.90
23116;DHT22;11727;52.134;5.052;2023-03-02T05:32:44;0.40;99.90
23116;DHT22;11727;52.134;5.052;2023-03-02T05:35:11;0.40;99.90
23116;DHT22;11727;52.134;5.052;2023-03-02T05:37:36;0.50;99.90
23116;DHT22;11727;52.134;5.052;2023-03-02T05:40:06;0.50;99.90
23116;DHT22;11727;52.134;5.052;2023-03-02T05:42:34;0.50;99.90
23116;DHT22;11727;52.134;5.052;2023-03-02T05:45:04;0.60;99.90
23116;DHT22;11727;52.134;5.052;2023-03-02T05:47:30;0.60;99.90
23116;DHT22;11727;52.134;5.052;2023-03-02T05:49:56;0.60;99.90
23116;DHT22;11727;52.134;5.052;2023-03-02T05:52:22;0.60;99.90
23116;DHT22;11727;52.134;5.052;2023-03-02T05:54:47;0.60;99.90
23116;DHT22;11727;52.134;5.052;2023-03-02T05:57:13;0.50;99.90
23116;DHT22;11727;52.134;5.052;2023-03-02T05:59:38;0.50;99.90
23116;DHT22;11727;52.134;5.052;2023-03-02T06:02:04;0.50;99.90
23116;DHT22;11727;52.134;5.052;2023-03-02T06:04:29;0.50;99.90
23116;DHT22;11727;52.134;5.052;2023-03-02T06:06:55;0.50;99.90
23116;DHT22;11727;52.134;5.052;2023-03-02T06:09:21;0.40;99.90
23116;DHT22;11727;52.134;5.052;2023-03-02T06:11:47;0.40;99.90
23116;DHT22;11727;52.134;5.052;2023-03-02T06:14:12;0.40;99.90
23116;DHT22;11727;52.134;5.052;2023-03-02T06:16:38;0.40;99.90
23116;DHT22;11727;52.134;5.052;2023-03-02T06:19:04;0.40;99.90
23116;DHT22;11727;52.134;5.052;2023-03-02T06:21:29;0.30;99.90
23116;DHT22;11727;52.134;5.052;2023-03-02T06:23:55;0.40;99.90
23116;DHT22;11727;52.134;5.052;2023-03-02T06:26:21;0.40;99.90
23116;DHT22;11727;52.134;5.052;2023-03-02T06:28:46;0.40;99.90
23116;DHT22;11727;52.134;5.052;2023-03-02T06:31:12;0.40;99.90
23116;DHT22;11727;52.134;5.052;2023-03-02T06:33:37;0.30;99.90
23116;DHT22;11727;52.134;5.052;2023-03-02T06:36:03;0.30;99.90
23116;DHT22;11727;52.134;5.052;2023-03-02T06:38:29;0.30;99.90
23116;DHT22;11727;52.134;5.052;2023-03-02T06:40:54;0.30;99.90
23116;DHT22;11727;52.134;5.052;2023-03-02T06:43:20;0.30;99.90
23116;DHT22;11727;52.134;5.052;2023-03-02T06:45:46;0.30;99.90
23116;DHT22;11727;52.134;5.052;2023-03-02T06:48:11;0.30;99.90
23116;DHT22;11727;52.134;5.052;2023-03-02T06:50:37;0.30;99.90
23116;DHT22;11727;52.134;5.052;2023-03-02T06:53:03;0.30;99.90
23116;DHT22;11727;52.134;5.052;2023-03-02T06:55:29;0.30;99.90
23116;DHT22;11727;52.134;5.052;2023-03-02T06:57:54;0.30;99.90
23116;DHT22;11727;52.134;5.052;2023-03-02T07:00:21;0.40;99.90
23116;DHT22;11727;52.134;5.052;2023-03-02T07:02:51;0.40;99.90
23116;DHT22;11727;52.134;5.052;2023-03-02T07:05:18;0.40;99.90
23116;DHT22;11727;52.134;5.052;2023-03-02T07:07:44;0.40;99.90
23116;DHT22;11727;52.134;5.052;2023-03-02T07:10:10;0.40;99.90
23116;DHT22;11727;52.134;5.052;2023-03-02T07:12:38;0.50;99.90
23116;DHT22;11727;52.134;5.052;2023-03-02T07:15:04;0.60;99.90
23116;DHT22;11727;52.134;5.052;2023-03-02T07:17:35;0.60;99.90
23116;DHT22;11727;52.134;5.052;2023-03-02T07:20:02;0.70;99.90
23116;DHT22;11727;52.134;5.052;2023-03-02T07:22:29;0.80;99.90
23116;DHT22;11727;52.134;5.052;2023-03-02T07:24:55;0.80;99.90
23116;DHT22;11727;52.134;5.052;2023-03-02T07:27:20;0.80;99.90
23116;DHT22;11727;52.134;5.052;2023-03-02T07:29:46;0.80;99.90
23116;DHT22;11727;52.134;5.052;2023-03-02T07:32:12;0.90;99.90
23116;DHT22;11727;52.134;5.052;2023-03-02T07:34:37;1.00;99.90
23116;DHT22;11727;52.134;5.052;2023-03-02T07:37:03;1.00;99.90
23116;DHT22;11727;52.134;5.052;2023-03-02T07:39:29;1.10;99.90
23116;DHT22;11727;52.134;5.052;2023-03-02T07:41:59;1.10;99.90
23116;DHT22;11727;52.134;5.052;2023-03-02T07:44:25;1.10;99.90
23116;DHT22;11727;52.134;5.052;2023-03-02T07:46:51;1.10;99.90
23116;DHT22;11727;52.134;5.052;2023-03-02T07:49:16;1.20;99.90
23116;DHT22;11727;52.134;5.052;2023-03-02T07:51:42;1.30;99.90
23116;DHT22;11727;52.134;5.052;2023-03-02T07:54:08;1.30;99.90
23116;DHT22;11727;52.134;5.052;2023-03-02T07:56:33;1.40;99.90
23116;DHT22;11727;52.134;5.052;2023-03-02T07:58:59;1.50;99.90
23116;DHT22;11727;52.134;5.052;2023-03-02T08:01:25;1.60;99.90
23116;DHT22;11727;52.134;5.052;2023-03-02T08:03:50;1.70;99.90
23116;DHT22;11727;52.134;5.052;2023-03-02T08:06:16;1.80;99.90
23116;DHT22;11727;52.134;5.052;2023-03-02T08:08:42;1.90;99.90
23116;DHT22;11727;52.134;5.052;2023-03-02T08:11:10;2.00;99.90
23116;DHT22;11727;52.134;5.052;2023-03-02T08:13:36;2.00;99.90
23116;DHT22;11727;52.134;5.052;2023-03-02T08:16:03;2.00;99.90
23116;DHT22;11727;52.134;5.052;2023-03-02T08:18:30;2.00;99.90
23116;DHT22;11727;52.134;5.052;2023-03-02T08:20:56;2.10;99.90
23116;DHT22;11727;52.134;5.052;2023-03-02T08:23:23;2.10;99.90
23116;DHT22;11727;52.134;5.052;2023-03-02T08:25:49;2.20;99.90
23116;DHT22;11727;52.134;5.052;2023-03-02T08:28:16;2.30;99.90
23116;DHT22;11727;52.134;5.052;2023-03-02T08:30:41;2.40;99.90
23116;DHT22;11727;52.134;5.052;2023-03-02T08:33:07;2.50;99.90
23116;DHT22;11727;52.134;5.052;2023-03-02T08:35:32;2.60;99.90
23116;DHT22;11727;52.134;5.052;2023-03-02T08:37:58;2.70;99.90
23116;DHT22;11727;52.134;5.052;2023-03-02T08:40:26;2.90;99.90
23116;DHT22;11727;52.134;5.052;2023-03-02T08:42:52;2.90;99.90
23116;DHT22;11727;52.134;5.052;2023-03-02T08:45:23;2.80;99.90
23116;DHT22;11727;52.134;5.052;2023-03-02T08:47:48;2.80;99.90
23116;DHT22;11727;52.134;5.052;2023-03-02T08:50:14;2.90;99.90
23116;DHT22;11727;52.134;5.052;2023-03-02T08:52:40;3.00;99.90
23116;DHT22;11727;52.134;5.052;2023-03-02T08:55:06;3.00;99.90
23116;DHT22;11727;52.134;5.052;2023-03-02T08:57:32;3.00;99.90
23116;DHT22;11727;52.134;5.052;2023-03-02T08:59:59;3.00;99.90
23116;DHT22;11727;52.134;5.052;2023-03-02T09:02:24;3.00;99.90
23116;DHT22;11727;52.134;5.052;2023-03-02T09:04:50;3.00;99.90
23116;DHT22;11727;52.134;5.052;2023-03-02T09:07:15;3.00;99.90
23116;DHT22;11727;52.134;5.052;2023-03-02T09:09:42;3.00;99.90
23116;DHT22;11727;52.134;5.052;2023-03-02T09:12:07;3.00;99.90
23116;DHT22;11727;52.134;5.052;2023-03-02T09:14:33;2.90;99.90
23116;DHT22;11727;52.134;5.052;2023-03-02T09:16:59;3.00;99.90
23116;DHT22;11727;52.134;5.052;2023-03-02T09:19:24;3.00;99.90
23116;DHT22;11727;52.134;5.052;2023-03-02T09:21:50;3.00;99.90
23116;DHT22;11727;52.134;5.052;2023-03-02T09:24:16;3.00;99.90
23116;DHT22;11727;52.134;5.052;2023-03-02T09:26:41;3.10;99.90
23116;DHT22;11727;52.134;5.052;2023-03-02T09:29:07;3.10;99.90
23116;DHT22;11727;52.134;5.052;2023-03-02T09:31:33;3.20;99.90
23116;DHT22;11727;52.134;5.052;2023-03-02T09:33:59;3.30;99.90
23116;DHT22;11727;52.134;5.052;2023-03-02T09:36:25;3.30;99.90
23116;DHT22;11727;52.134;5.052;2023-03-02T09:38:52;3.30;99.90
23116;DHT22;11727;52.134;5.052;2023-03-02T09:49:48;3.50;99.90
23116;DHT22;11727;52.134;5.052;2023-03-02T09:52:42;3.60;99.90
23116;DHT22;11727;52.134;5.052;2023-03-02T09:55:27;3.60;99.90
23116;DHT22;11727;52.134;5.052;2023-03-02T09:57:54;3.80;99.90
23116;DHT22;11727;52.134;5.052;2023-03-02T10:00:32;3.90;99.90
23116;DHT22;11727;52.134;5.052;2023-03-02T10:03:09;4.10;99.90
23116;DHT22;11727;52.134;5.052;2023-03-02T10:08:01;4.60;99.90
23116;DHT22;11727;52.134;5.052;2023-03-02T10:18:27;5.20;99.90
23116;DHT22;11727;52.134;5.052;2023-03-02T10:20:59;5.30;99.90
23116;DHT22;11727;52.134;5.052;2023-03-02T10:26:25;5.80;99.90
23116;DHT22;11727;52.134;5.052;2023-03-02T10:29:01;6.00;99.90
23116;DHT22;11727;52.134;5.052;2023-03-02T10:31:31;6.30;99.90
23116;DHT22;11727;52.134;5.052;2023-03-02T10:33:59;6.40;99.90
23116;DHT22;11727;52.134;5.052;2023-03-02T10:36:30;6.20;99.90
23116;DHT22;11727;52.134;5.052;2023-03-02T10:38:57;6.10;99.90
23116;DHT22;11727;52.134;5.052;2023-03-02T10:42:03;6.20;99.90
23116;DHT22;11727;52.134;5.052;2023-03-02T10:44:33;6.40;99.90
23116;DHT22;11727;52.134;5.052;2023-03-02T10:47:02;6.50;99.90
23116;DHT22;11727;52.134;5.052;2023-03-02T10:49:34;6.50;99.90
23116;DHT22;11727;52.134;5.052;2023-03-02T10:54:31;6.70;99.90
23116;DHT22;11727;52.134;5.052;2023-03-02T10:56:59;6.70;99.90
23116;DHT22;11727;52.134;5.052;2023-03-02T10:59:46;6.80;99.90
23116;DHT22;11727;52.134;5.052;2023-03-02T11:02:13;6.70;99.90
23116;DHT22;11727;52.134;5.052;2023-03-02T11:04:39;6.70;99.90
23116;DHT22;11727;52.134;5.052;2023-03-02T11:07:09;6.80;99.90
23116;DHT22;11727;52.134;5.052;2023-03-02T11:09:37;7.10;99.90
23116;DHT22;11727;52.134;5.052;2023-03-02T11:12:03;7.20;99.90
23116;DHT22;11727;52.134;5.052;2023-03-02T11:14:29;7.10;99.90
23116;DHT22;11727;52.134;5.052;2023-03-02T11:16:55;7.20;99.90
23116;DHT22;11727;52.134;5.052;2023-03-02T11:19:38;7.20;99.90
23116;DHT22;11727;52.134;5.052;2023-03-02T11:22:08;7.30;99.90
23116;DHT22;11727;52.134;5.052;2023-03-02T11:24:52;7.30;99.90
23116;DHT22;11727;52.134;5.052;2023-03-02T11:27:26;7.30;99.90
23116;DHT22;11727;52.134;5.052;2023-03-02T11:43:53;8.00;99.90
23116;DHT22;11727;52.134;5.052;2023-03-02T11:46:23;8.10;99.90
23116;DHT22;11727;52.134;5.052;2023-03-02T11:48:53;8.10;99.90
23116;DHT22;11727;52.134;5.052;2023-03-02T11:51:28;8.10;99.90
23116;DHT22;11727;52.134;5.052;2023-03-02T11:54:04;8.30;99.90
23116;DHT22;11727;52.134;5.052;2023-03-02T11:56:35;8.20;99.90
23116;DHT22;11727;52.134;5.052;2023-03-02T11:59:09;8.40;99.90
23116;DHT22;11727;52.134;5.052;2023-03-02T12:01:36;8.50;99.90
23116;DHT22;11727;52.134;5.052;2023-03-02T12:04:22;8.50;99.90
23116;DHT22;11727;52.134;5.052;2023-03-02T12:06:49;8.50;99.90
23116;DHT22;11727;52.134;5.052;2023-03-02T12:11:54;8.30;99.90
23116;DHT22;11727;52.134;5.052;2023-03-02T12:14:38;8.30;99.90
23116;DHT22;11727;52.134;5.052;2023-03-02T12:19:52;8.40;99.90
23116;DHT22;11727;52.134;5.052;2023-03-02T12:22:30;8.40;99.90
23116;DHT22;11727;52.134;5.052;2023-03-02T12:27:52;8.40;99.90
23116;DHT22;11727;52.134;5.052;2023-03-02T12:30:20;8.40;99.90
23116;DHT22;11727;52.134;5.052;2023-03-02T12:33:01;8.40;99.90
23116;DHT22;11727;52.134;5.052;2023-03-02T12:35:29;8.50;99.90
23116;DHT22;11727;52.134;5.052;2023-03-02T12:38:02;8.50;99.90
23116;DHT22;11727;52.134;5.052;2023-03-02T12:43:36;8.50;99.90
23116;DHT22;11727;52.134;5.052;2023-03-02T12:48:48;8.80;99.90
23116;DHT22;11727;52.134;5.052;2023-03-02T12:51:17;8.90;99.90
23116;DHT22;11727;52.134;5.052;2023-03-02T12:53:46;8.70;99.90
23116;DHT22;11727;52.134;5.052;2023-03-02T12:56:22;8.70;99.90
23116;DHT22;11727;52.134;5.052;2023-03-02T12:58:49;8.80;99.90
23116;DHT22;11727;52.134;5.052;2023-03-02T13:01:19;8.90;99.90
23116;DHT22;11727;52.134;5.052;2023-03-02T13:03:46;9.00;99.90
23116;DHT22;11727;52.134;5.052;2023-03-02T13:06:15;9.00;99.90
23116;DHT22;11727;52.134;5.052;2023-03-02T13:08:42;9.00;99.90
23116;DHT22;11727;52.134;5.052;2023-03-02T13:11:08;9.10;99.90
23116;DHT22;11727;52.134;5.052;2023-03-02T13:13:35;9.20;99.90
23116;DHT22;11727;52.134;5.052;2023-03-02T13:16:02;9.40;99.90
23116;DHT22;11727;52.134;5.052;2023-03-02T13:18:28;9.50;99.90
23116;DHT22;11727;52.134;5.052;2023-03-02T13:20:56;9.50;99.90
23116;DHT22;11727;52.134;5.052;2023-03-02T13:23:22;9.40;99.90
23116;DHT22;11727;52.134;5.052;2023-03-02T13:25:49;9.40;99.90
23116;DHT22;11727;52.134;5.052;2023-03-02T13:28:35;9.60;99.90
23116;DHT22;11727;52.134;5.052;2023-03-02T13:33:29;9.50;99.90
23116;DHT22;11727;52.134;5.052;2023-03-02T13:35:55;9.70;99.90
23116;DHT22;11727;52.134;5.052;2023-03-02T13:38:22;9.90;99.90
23116;DHT22;11727;52.134;5.052;2023-03-02T13:40:49;10.00;99.90
23116;DHT22;11727;52.134;5.052;2023-03-02T13:45:53;10.00;99.90
23116;DHT22;11727;52.134;5.052;2023-03-02T13:48:20;9.90;99.90
23116;DHT22;11727;52.134;5.052;2023-03-02T13:53:34;9.90;99.90
23116;DHT22;11727;52.134;5.052;2023-03-02T13:56:02;9.90;99.90
23116;DHT22;11727;52.134;5.052;2023-03-02T13:58:28;10.10;99.90
23116;DHT22;11727;52.134;5.052;2023-03-02T14:00:55;9.90;99.90
23116;DHT22;11727;52.134;5.052;2023-03-02T14:03:26;9.90;99.90
23116;DHT22;11727;52.134;5.052;2023-03-02T14:05:52;9.90;99.90
23116;DHT22;11727;52.134;5.052;2023-03-02T14:08:18;9.70;99.90
23116;DHT22;11727;52.134;5.052;2023-03-02T14:10:43;9.80;99.90
23116;DHT22;11727;52.134;5.052;2023-03-02T14:13:13;9.80;99.90
23116;DHT22;11727;52.134;5.052;2023-03-02T14:15:40;9.70;99.90
23116;DHT22;11727;52.134;5.052;2023-03-02T14:18:13;9.70;99.90
23116;DHT22;11727;52.134;5.052;2023-03-02T14:20:47;9.80;99.90
23116;DHT22;11727;52.134;5.052;2023-03-02T14:23:13;9.80;99.90
23116;DHT22;11727;52.134;5.052;2023-03-02T14:25:38;9.70;99.90
23116;DHT22;11727;52.134;5.052;2023-03-02T14:28:03;9.70;99.90
23116;DHT22;11727;52.134;5.052;2023-03-02T14:30:29;9.70;99.90
23116;DHT22;11727;52.134;5.052;2023-03-02T14:32:54;9.80;99.90
23116;DHT22;11727;52.134;5.052;2023-03-02T14:35:20;9.90;99.90
23116;DHT22;11727;52.134;5.052;2023-03-02T14:37:47;10.00;99.90
23116;DHT22;11727;52.134;5.052;2023-03-02T14:40:19;10.20;99.90
23116;DHT22;11727;52.134;5.052;2023-03-02T14:42:46;10.10;99.90
23116;DHT22;11727;52.134;5.052;2023-03-02T14:45:12;10.10;99.90
23116;DHT22;11727;52.134;5.052;2023-03-02T14:47:38;10.10;99.90
23116;DHT22;11727;52.134;5.052;2023-03-02T14:50:04;10.10;99.90
23116;DHT22;11727;52.134;5.052;2023-03-02T14:52:42;10.10;99.90
23116;DHT22;11727;52.134;5.052;2023-03-02T14:55:14;10.10;99.90
23116;DHT22;11727;52.134;5.052;2023-03-02T14:57:40;10.00;99.90
23116;DHT22;11727;52.134;5.052;2023-03-02T15:00:06;9.90;99.90
23116;DHT22;11727;52.134;5.052;2023-03-02T15:02:31;9.90;99.90
23116;DHT22;11727;52.134;5.052;2023-03-02T15:04:57;9.50;99.90
23116;DHT22;11727;52.134;5.052;2023-03-02T15:07:23;9.50;99.90
23116;DHT22;11727;52.134;5.052;2023-03-02T15:09:49;9.70;99.90
23116;DHT22;11727;52.134;5.052;2023-03-02T15:12:15;9.70;99.90
23116;DHT22;11727;52.134;5.052;2023-03-02T15:14:40;9.70;99.90
23116;DHT22;11727;52.134;5.052;2023-03-02T15:17:06;9.70;99.90
23116;DHT22;11727;52.134;5.052;2023-03-02T15:19:31;9.80;99.90
23116;DHT22;11727;52.134;5.052;2023-03-02T15:21:57;9.80;99.90
23116;DHT22;11727;52.134;5.052;2023-03-02T15:24:22;9.80;99.90
23116;DHT22;11727;52.134;5.052;2023-03-02T15:26:48;9.80;99.90
23116;DHT22;11727;52.134;5.052;2023-03-02T15:29:14;9.70;99.90
23116;DHT22;11727;52.134;5.052;2023-03-02T15:31:39;9.50;99.90
23116;DHT22;11727;52.134;5.052;2023-03-02T15:34:05;9.30;99.90
23116;DHT22;11727;52.134;5.052;2023-03-02T15:36:30;9.10;99.90
23116;DHT22;11727;52.134;5.052;2023-03-02T15:38:56;8.90;99.90
23116;DHT22;11727;52.134;5.052;2023-03-02T15:41:21;8.80;99.90
23116;DHT22;11727;52.134;5.052;2023-03-02T15:43:50;8.70;99.90
23116;DHT22;11727;52.134;5.052;2023-03-02T15:46:16;8.50;99.90
23116;DHT22;11727;52.134;5.052;2023-03-02T15:48:42;8.40;99.90
23116;DHT22;11727;52.134;5.052;2023-03-02T15:51:08;8.20;99.90
23116;DHT22;11727;52.134;5.052;2023-03-02T15:53:34;8.10;99.90
23116;DHT22;11727;52.134;5.052;2023-03-02T15:56:07;8.10;99.90
23116;DHT22;11727;52.134;5.052;2023-03-02T15:58:33;8.00;99.90
23116;DHT22;11727;52.134;5.052;2023-03-02T16:00:59;7.90;99.90
23116;DHT22;11727;52.134;5.052;2023-03-02T16:03:25;7.80;99.90
23116;DHT22;11727;52.134;5.052;2023-03-02T16:05:50;7.70;99.90
23116;DHT22;11727;52.134;5.052;2023-03-02T16:08:16;7.60;99.90
23116;DHT22;11727;52.134;5.052;2023-03-02T16:10:42;7.60;99.90
23116;DHT22;11727;52.134;5.052;2023-03-02T16:13:08;7.60;99.90
23116;DHT22;11727;52.134;5.052;2023-03-02T16:15:37;7.60;99.90
23116;DHT22;11727;52.134;5.052;2023-03-02T16:18:06;7.60;99.90
23116;DHT22;11727;52.134;5.052;2023-03-02T16:20:33;7.60;99.90
23116;DHT22;11727;52.134;5.052;2023-03-02T16:22:58;7.60;99.90
23116;DHT22;11727;52.134;5.052;2023-03-02T16:25:26;7.60;99.90
23116;DHT22;11727;52.134;5.052;2023-03-02T16:27:53;7.60;99.90
23116;DHT22;11727;52.134;5.052;2023-03-02T16:30:18;7.60;99.90
23116;DHT22;11727;52.134;5.052;2023-03-02T16:32:44;7.50;99.90
23116;DHT22;11727;52.134;5.052;2023-03-02T16:35:09;7.40;99.90
23116;DHT22;11727;52.134;5.052;2023-03-02T16:37:35;7.30;99.90
23116;DHT22;11727;52.134;5.052;2023-03-02T16:40:00;7.20;99.90
23116;DHT22;11727;52.134;5.052;2023-03-02T16:42:26;7.10;99.90
23116;DHT22;11727;52.134;5.052;2023-03-02T16:44:54;7.00;99.90
23116;DHT22;11727;52.134;5.052;2023-03-02T16:47:19;7.00;99.90
23116;DHT22;11727;52.134;5.052;2023-03-02T16:49:45;6.90;99.90
23116;DHT22;11727;52.134;5.052;2023-03-02T16:52:10;6.80;99.90
23116;DHT22;11727;52.134;5.052;2023-03-02T16:54:36;6.70;99.90